createdAt,value
2023-01-20T00:01:48.297Z,92.20
2023-01-20T00:04:19.546Z,90.50
2023-01-20T00:06:48.426Z,91.50
2023-01-20T00:09:18.306Z,86.80
2023-01-20T00:11:47.124Z,96.60
2023-01-20T00:14:16.876Z,92.90
2023-01-20T00:16:45.385Z,92.30
2023-01-20T00:19:14.796Z,91.60
2023-01-20T00:21:43.583Z,93.60
2023-01-20T00:24:12.093Z,94.10
2023-01-20T00:26:41.299Z,87.50
2023-01-20T00:29:10.196Z,90.90
2023-01-20T00:31:39.029Z,95.50
2023-01-20T00:34:07.447Z,96.60
2023-01-20T00:36:35.896Z,92.50
2023-01-20T00:39:04.999Z,95.00
2023-01-20T00:41:33.437Z,90.20
2023-01-20T00:44:02.142Z,96.60
2023-01-20T00:46:30.524Z,98.20
2023-01-20T00:48:59.037Z,97.30
2023-01-20T00:51:27.461Z,97.50
2023-01-20T00:53:56.154Z,84.90
2023-01-20T00:56:24.472Z,106.70
2023-01-20T00:58:55.269Z,91.70
2023-01-20T01:01:24.457Z,95.70
2023-01-20T01:03:54.632Z,97.20
2023-01-20T01:06:23.933Z,97.90
2023-01-20T01:08:53.195Z,94.20
2023-01-20T01:11:21.494Z,90.80
2023-01-20T01:13:49.828Z,90.20
2023-01-20T01:16:18.289Z,79.20
2023-01-20T01:18:46.559Z,84.40
2023-01-20T01:21:17.916Z,74.60
2023-01-20T01:23:46.474Z,60.40
2023-01-20T01:26:14.995Z,58.80
2023-01-20T01:28:43.563Z,53.90
2023-01-20T01:31:11.933Z,57.00
2023-01-20T01:33:40.383Z,56.40
2023-01-20T01:36:13.279Z,55.70
2023-01-20T01:38:41.939Z,51.00
2023-01-20T01:41:13.286Z,53.70
2023-01-20T01:44:10.068Z,49.30
2023-01-20T01:46:39.847Z,50.80
2023-01-20T01:49:15.737Z,49.60
2023-01-20T01:51:56.505Z,50.80
2023-01-20T01:54:29.408Z,54.60
2023-01-20T01:56:57.823Z,48.80
2023-01-20T01:59:26.467Z,53.20
2023-01-20T02:01:55.441Z,54.90
2023-01-20T02:04:26.159Z,49.80
2023-01-20T02:07:18.329Z,47.80
2023-01-20T02:09:46.894Z,50.40
2023-01-20T02:12:18.908Z,47.20
2023-01-20T02:14:54.871Z,47.50
2023-01-20T02:17:26.079Z,44.60
2023-01-20T02:20:32.207Z,49.30
2023-01-20T02:23:17.559Z,44.70
2023-01-20T02:25:48.991Z,49.90
2023-01-20T02:28:26.304Z,48.90
2023-01-20T02:31:16.193Z,51.50
2023-01-20T02:33:51.747Z,43.20
2023-01-20T02:36:30.812Z,47.80
2023-01-20T02:39:27.040Z,50.60
2023-01-20T02:42:08.319Z,48.40
2023-01-20T02:45:17.803Z,46.30
2023-01-20T02:47:51.941Z,46.40
2023-01-20T02:50:31.742Z,48.50
2023-01-20T02:53:03.311Z,49.40
2023-01-20T02:55:40.751Z,46.60
2023-01-20T02:58:19.799Z,49.70
2023-01-20T03:00:56.294Z,52.30
2023-01-20T03:03:32.315Z,49.90
2023-01-20T03:06:04.456Z,49.40
2023-01-20T03:08:33.835Z,52.40
2023-01-20T03:11:07.430Z,50.10
2023-01-20T03:13:39.952Z,51.60
2023-01-20T03:16:12.371Z,50.30
2023-01-20T03:18:43.212Z,46.60
2023-01-20T03:21:13.235Z,52.30
2023-01-20T03:23:46.247Z,49.10
2023-01-20T03:26:17.198Z,51.00
2023-01-20T03:28:46.919Z,44.30
2023-01-20T03:31:45.387Z,50.50
2023-01-20T03:34:17.158Z,50.00
2023-01-20T03:36:46.119Z,50.20
2023-01-20T03:39:15.038Z,50.70
2023-01-20T03:47:43.953Z,46.40
2023-01-20T03:50:24.076Z,50.80
2023-01-20T03:53:05.829Z,36.80
2023-01-20T03:55:43.439Z,43.80
2023-01-20T03:58:16.400Z,43.70
2023-01-20T04:00:48.141Z,39.50
2023-01-20T04:03:31.683Z,42.90
2023-01-20T04:08:33.755Z,40.10
2023-01-20T04:11:06.576Z,40.30
2023-01-20T04:13:35.701Z,33.70
2023-01-20T04:16:10.325Z,40.10
2023-01-20T04:18:42.487Z,44.90
2023-01-20T04:24:07.084Z,38.80
2023-01-20T04:26:35.447Z,33.30
2023-01-20T04:29:11.131Z,32.60
2023-01-20T04:31:41.060Z,38.90
2023-01-20T04:34:13.957Z,40.70
2023-01-20T04:36:43.017Z,34.40
2023-01-20T04:39:11.365Z,37.90
2023-01-20T04:41:39.939Z,37.90
2023-01-20T04:44:08.216Z,41.10
2023-01-20T04:46:37.208Z,41.40
2023-01-20T04:49:05.535Z,43.10
2023-01-20T04:51:34.259Z,41.40
2023-01-20T04:54:02.533Z,35.00
2023-01-20T04:56:31.382Z,36.00
2023-01-20T04:58:59.939Z,39.10
2023-01-20T05:01:28.338Z,37.40
2023-01-20T05:03:56.769Z,37.80
2023-01-20T05:06:25.071Z,41.60
2023-01-20T05:08:53.574Z,38.70
2023-01-20T05:11:21.903Z,37.40
2023-01-20T05:13:50.269Z,37.50
2023-01-20T05:16:25.143Z,39.30
2023-01-20T05:18:54.392Z,44.30
2023-01-20T05:21:22.723Z,43.10
2023-01-20T05:23:54.495Z,41.30
2023-01-20T05:26:23.894Z,46.40
2023-01-20T05:28:52.863Z,41.40
2023-01-20T05:31:21.448Z,35.00
2023-01-20T05:33:50.652Z,38.20
2023-01-20T05:36:18.976Z,38.70
2023-01-20T05:38:47.301Z,33.90
2023-01-20T05:41:16.118Z,37.50
2023-01-20T05:43:44.345Z,34.80
2023-01-20T05:46:12.665Z,32.10
2023-01-20T05:48:40.979Z,37.20
2023-01-20T05:51:09.338Z,31.70
2023-01-20T05:53:37.741Z,32.80
2023-01-20T05:56:06.789Z,32.80
2023-01-20T05:58:35.229Z,28.90
2023-01-20T06:01:09.070Z,31.30
2023-01-20T06:03:37.921Z,32.80
2023-01-20T06:06:08.814Z,32.10
2023-01-20T06:08:37.139Z,31.70
2023-01-20T06:11:05.653Z,37.30
2023-01-20T06:13:35.534Z,35.20
2023-01-20T06:16:07.037Z,33.80
2023-01-20T06:18:35.923Z,33.50
2023-01-20T06:21:04.879Z,37.20
2023-01-20T06:23:33.983Z,41.10
2023-01-20T06:26:08.446Z,38.40
2023-01-20T06:28:36.775Z,40.60
2023-01-20T06:31:13.862Z,39.30
2023-01-20T06:33:42.780Z,36.10
2023-01-20T06:36:13.949Z,36.70
2023-01-20T06:38:42.373Z,36.10
2023-01-20T06:41:12.957Z,37.00
2023-01-20T06:43:42.278Z,43.00
2023-01-20T06:46:13.355Z,46.50
2023-01-20T06:48:43.039Z,43.10
2023-01-20T06:51:16.620Z,44.30
2023-01-20T06:53:45.281Z,39.20
2023-01-20T06:56:14.884Z,52.60
2023-01-20T06:58:43.585Z,41.10
2023-01-20T07:01:20.899Z,37.10
2023-01-20T07:03:49.282Z,39.80
2023-01-20T07:06:20.499Z,40.50
2023-01-20T07:08:48.828Z,44.90
2023-01-20T07:11:17.214Z,47.30
2023-01-20T07:13:45.798Z,44.60
2023-01-20T07:16:15.966Z,41.70
2023-01-20T07:18:51.294Z,47.60
2023-01-20T07:21:20.832Z,47.30
2023-01-20T07:23:49.577Z,45.60
2023-01-20T07:26:20.941Z,44.00
2023-01-20T07:28:52.208Z,45.40
2023-01-20T07:31:23.329Z,48.10
2023-01-20T07:33:52.113Z,41.50
2023-01-20T07:36:20.440Z,43.40
2023-01-20T07:38:52.780Z,44.70
2023-01-20T07:41:22.104Z,37.90
2023-01-20T07:43:52.252Z,39.20
2023-01-20T07:46:20.964Z,37.60
2023-01-20T07:48:49.503Z,40.30
2023-01-20T07:51:18.511Z,40.10
2023-01-20T07:53:49.979Z,38.90
2023-01-20T07:56:25.748Z,39.20
2023-01-20T07:58:55.505Z,42.80
2023-01-20T08:01:29.237Z,42.60
2023-01-20T08:04:00.784Z,38.50
2023-01-20T08:06:30.245Z,40.70
2023-01-20T08:09:02.497Z,38.50
2023-01-20T08:11:32.408Z,44.20
2023-01-20T08:14:00.830Z,41.40
2023-01-20T08:16:29.253Z,43.10
2023-01-20T08:18:57.533Z,39.50
2023-01-20T08:21:28.965Z,39.00
2023-01-20T08:23:59.466Z,41.10
2023-01-20T08:26:30.012Z,39.70
2023-01-20T08:29:07.812Z,39.40
2023-01-20T08:31:40.484Z,46.00
2023-01-20T08:34:09.936Z,41.70
2023-01-20T08:36:41.130Z,45.10
2023-01-20T08:39:12.410Z,43.10
2023-01-20T08:41:43.312Z,39.80
2023-01-20T08:44:12.445Z,44.70
2023-01-20T08:46:42.075Z,48.50
2023-01-20T08:49:13.659Z,46.20
2023-01-20T08:51:42.735Z,46.40
2023-01-20T08:54:11.855Z,43.10
2023-01-20T08:56:40.265Z,43.10
2023-01-20T08:59:08.597Z,45.00
2023-01-20T09:01:38.169Z,45.20
2023-01-20T09:04:07.742Z,47.90
2023-01-20T09:06:48.705Z,48.40
2023-01-20T09:09:19.236Z,47.70
2023-01-20T09:11:51.509Z,54.10
2023-01-20T09:14:21.139Z,52.40
2023-01-20T09:16:49.556Z,48.40
2023-01-20T09:19:18.428Z,51.70
2023-01-20T09:21:47.240Z,51.80
2023-01-20T09:24:15.647Z,46.10
2023-01-20T09:26:45.077Z,48.60
2023-01-20T09:29:15.855Z,44.80
2023-01-20T09:31:53.621Z,45.90
2023-01-20T09:34:21.963Z,43.20
2023-01-20T09:37:21.919Z,43.80
2023-01-20T09:40:09.100Z,39.90
2023-01-20T09:43:15.057Z,39.10
2023-01-20T09:46:01.180Z,42.20
2023-01-20T09:49:02.452Z,40.80
2023-01-20T09:52:12.453Z,44.50
2023-01-20T09:55:08.242Z,42.30
2023-01-20T09:57:40.514Z,37.70
2023-01-20T10:00:17.435Z,39.20
2023-01-20T10:02:51.987Z,35.60
2023-01-20T10:05:23.975Z,38.60
2023-01-20T10:08:13.815Z,37.50
2023-01-20T10:11:22.423Z,41.10
2023-01-20T10:14:23.414Z,36.80
2023-01-20T10:17:00.202Z,40.20
2023-01-20T10:19:31.990Z,39.00
2023-01-20T10:22:31.413Z,41.80
2023-01-20T10:25:06.977Z,44.60
2023-01-20T10:27:40.518Z,38.50
2023-01-20T10:30:14.251Z,38.70
2023-01-20T10:32:54.033Z,40.10
2023-01-20T10:35:27.601Z,38.30
2023-01-20T10:37:56.669Z,38.70
2023-01-20T10:40:43.381Z,38.70
2023-01-20T10:43:14.241Z,38.60
2023-01-20T10:46:00.951Z,42.00
2023-01-20T10:48:56.704Z,40.40
2023-01-20T10:51:46.822Z,38.90
2023-01-20T10:54:31.734Z,36.00
2023-01-20T10:57:04.173Z,41.80
2023-01-20T10:59:43.584Z,42.90
2023-01-20T11:02:19.926Z,45.70
2023-01-20T11:05:01.384Z,49.10
2023-01-20T11:07:34.097Z,49.30
2023-01-20T11:10:34.616Z,42.20
2023-01-20T11:13:03.114Z,49.00
2023-01-20T11:15:35.687Z,49.40
2023-01-20T11:18:16.019Z,49.30
2023-01-20T11:20:47.110Z,45.50
2023-01-20T11:23:55.892Z,47.90
2023-01-20T11:26:38.161Z,47.90
2023-01-20T11:29:09.294Z,42.60
2023-01-20T11:31:49.733Z,45.40
2023-01-20T11:34:27.865Z,48.60
2023-01-20T11:37:05.083Z,43.70
2023-01-20T11:39:50.267Z,44.50
2023-01-20T11:42:21.229Z,42.70
2023-01-20T11:44:52.726Z,43.50
2023-01-20T11:47:31.226Z,51.40
2023-01-20T11:50:08.853Z,45.60
2023-01-20T11:52:40.412Z,44.90
2023-01-20T11:55:10.628Z,46.60
2023-01-20T11:57:44.867Z,47.20
2023-01-20T12:00:18.979Z,45.50
2023-01-20T12:03:02.543Z,48.50
2023-01-20T12:08:46.963Z,42.10
2023-01-20T12:11:21.898Z,47.00
2023-01-20T12:14:20.164Z,47.00
2023-01-20T12:17:13.126Z,53.70
2023-01-20T12:19:57.806Z,52.90
2023-01-20T12:22:48.462Z,52.20
2023-01-20T12:25:24.228Z,48.80
2023-01-20T12:28:05.943Z,48.40
2023-01-20T12:30:51.339Z,46.10
2023-01-20T12:33:24.105Z,52.50
2023-01-20T12:36:21.492Z,48.30
2023-01-20T12:38:58.697Z,44.30
2023-01-20T12:41:36.075Z,45.00
2023-01-20T12:44:23.177Z,44.30
2023-01-20T12:47:14.243Z,49.80
2023-01-20T12:49:46.024Z,44.40
2023-01-20T12:52:52.111Z,48.20
2023-01-20T12:55:55.861Z,48.30
2023-01-20T12:59:09.353Z,49.50
2023-01-20T13:01:43.684Z,45.40
2023-01-20T13:04:23.889Z,50.50
2023-01-20T13:07:10.884Z,44.60
2023-01-20T13:10:06.291Z,46.00
2023-01-20T13:12:56.484Z,54.00
2023-01-20T13:15:24.823Z,53.70
2023-01-20T13:18:14.278Z,49.10
2023-01-20T13:20:45.720Z,50.70
2023-01-20T13:23:17.543Z,52.40
2023-01-20T13:25:47.570Z,51.60
2023-01-20T13:28:25.035Z,56.20
2023-01-20T13:30:57.555Z,51.30
2023-01-20T13:33:39.145Z,51.40
2023-01-20T13:36:19.037Z,51.20
2023-01-20T13:38:50.181Z,48.10
2023-01-20T13:41:51.036Z,54.10
2023-01-20T13:44:34.624Z,55.70
2023-01-20T13:47:06.184Z,56.70
2023-01-20T13:49:52.325Z,55.00
2023-01-20T13:52:54.929Z,54.00
2023-01-20T13:55:30.701Z,50.60
2023-01-20T13:57:58.994Z,58.40
2023-01-20T14:00:27.255Z,55.20
2023-01-20T14:02:55.722Z,56.40
2023-01-20T14:05:29.148Z,56.40
2023-01-20T14:07:58.204Z,50.50
2023-01-20T14:10:27.230Z,51.90
2023-01-20T14:12:55.595Z,51.60
2023-01-20T14:15:26.403Z,57.00
2023-01-20T14:17:59.964Z,53.30
2023-01-20T14:20:29.499Z,58.70
2023-01-20T14:23:24.340Z,62.60
2023-01-20T14:26:08.409Z,61.40
2023-01-20T14:28:44.360Z,53.80
2023-01-20T14:31:13.916Z,61.90
2023-01-20T14:33:55.321Z,59.20
2023-01-20T14:36:26.797Z,60.10
2023-01-20T14:38:58.807Z,63.30
2023-01-20T14:41:33.975Z,54.00
2023-01-20T14:44:02.912Z,60.30
2023-01-20T14:46:33.474Z,55.50
2023-01-20T14:49:04.030Z,54.20
2023-01-20T14:51:33.690Z,60.90
2023-01-20T14:54:27.669Z,58.80
2023-01-20T14:56:57.154Z,57.40
2023-01-20T14:59:26.900Z,51.20
2023-01-20T15:02:00.923Z,55.20
2023-01-20T15:04:37.013Z,52.00
2023-01-20T15:07:05.735Z,54.40
2023-01-20T15:09:35.409Z,55.30
2023-01-20T15:12:42.771Z,54.60
2023-01-20T15:15:14.573Z,59.70
2023-01-20T15:18:18.061Z,56.80
2023-01-20T15:20:54.942Z,64.50
2023-01-20T15:23:39.074Z,61.00
2023-01-20T15:26:10.525Z,66.40
2023-01-20T15:28:43.789Z,66.20
2023-01-20T15:31:16.443Z,61.80
2023-01-20T15:33:45.078Z,64.50
2023-01-20T15:36:21.361Z,59.70
2023-01-20T15:38:51.072Z,59.40
2023-01-20T15:41:20.106Z,67.00
2023-01-20T15:43:49.511Z,70.40
2023-01-20T15:46:18.876Z,64.60
2023-01-20T15:48:47.322Z,72.40
2023-01-20T15:51:17.562Z,65.80
2023-01-20T15:53:46.670Z,69.80
2023-01-20T15:56:25.499Z,70.70
2023-01-20T15:58:54.227Z,80.60
2023-01-20T16:01:25.369Z,78.90
2023-01-20T16:03:57.823Z,69.80
2023-01-20T16:06:33.791Z,69.70
2023-01-20T16:09:03.634Z,65.40
2023-01-20T16:11:32.012Z,75.80
2023-01-20T16:14:00.262Z,69.40
2023-01-20T16:16:30.475Z,66.00
2023-01-20T16:18:59.447Z,66.70
2023-01-20T16:21:27.913Z,62.50
2023-01-20T16:23:56.267Z,66.60
2023-01-20T16:26:27.425Z,66.20
2023-01-20T16:28:58.382Z,66.10
2023-01-20T16:31:28.062Z,64.40
2023-01-20T16:33:56.863Z,58.80
2023-01-20T16:36:25.403Z,66.40
2023-01-20T16:38:54.194Z,71.40
2023-01-20T16:41:25.108Z,66.80
2023-01-20T16:43:55.062Z,66.10
2023-01-20T16:46:26.203Z,59.20
2023-01-20T16:48:59.481Z,68.10
2023-01-20T16:51:29.261Z,62.90
2023-01-20T16:53:59.092Z,59.90
2023-01-20T16:56:30.192Z,62.80
2023-01-20T16:59:04.304Z,60.30
2023-01-20T17:01:33.681Z,67.80
2023-01-20T17:04:03.762Z,69.80
2023-01-20T17:06:34.343Z,65.80
2023-01-20T17:09:05.154Z,66.10
2023-01-20T17:11:36.296Z,68.20
2023-01-20T17:14:06.612Z,71.30
2023-01-20T17:16:38.589Z,64.50
2023-01-20T17:19:07.318Z,64.00
2023-01-20T17:21:38.782Z,63.90
2023-01-20T17:24:07.718Z,59.80
2023-01-20T17:26:38.059Z,58.50
2023-01-20T17:29:07.601Z,57.50
2023-01-20T17:31:37.154Z,60.80
2023-01-20T17:34:07.008Z,59.60
2023-01-20T17:36:35.837Z,51.00
2023-01-20T17:39:05.585Z,60.40
2023-01-20T17:41:34.580Z,58.20
2023-01-20T17:44:04.261Z,54.30
2023-01-20T17:46:33.479Z,51.40
2023-01-20T17:49:04.913Z,44.40
2023-01-20T17:51:34.491Z,41.30
2023-01-20T17:54:04.113Z,42.80
2023-01-20T17:56:32.859Z,45.10
2023-01-20T17:59:01.251Z,43.60
2023-01-20T18:01:35.191Z,43.70
2023-01-20T18:04:06.473Z,40.20
2023-01-20T18:06:35.482Z,41.00
2023-01-20T18:09:06.418Z,43.90
2023-01-20T18:11:37.551Z,36.20
2023-01-20T18:14:07.103Z,40.40
2023-01-20T18:16:40.639Z,43.70
2023-01-20T18:19:14.092Z,38.20
2023-01-20T18:21:44.105Z,42.90
2023-01-20T18:24:13.522Z,66.80
2023-01-20T18:26:45.180Z,72.20
2023-01-20T18:29:16.655Z,75.20
2023-01-20T18:31:46.754Z,73.80
2023-01-20T18:34:16.159Z,61.90
2023-01-20T18:36:46.411Z,56.20
2023-01-20T18:39:23.654Z,51.80
2023-01-20T18:41:52.313Z,53.70
2023-01-20T18:44:21.286Z,51.30
2023-01-20T18:46:51.045Z,60.00
2023-01-20T18:49:19.523Z,63.50
2023-01-20T18:51:48.286Z,60.20
2023-01-20T18:54:18.587Z,62.00
2023-01-20T18:56:47.861Z,65.20
2023-01-20T18:59:16.379Z,67.80
2023-01-20T19:01:44.851Z,62.30
2023-01-20T19:04:13.838Z,56.90
2023-01-20T19:06:45.255Z,57.50
2023-01-20T19:09:16.647Z,61.40
2023-01-20T19:11:45.213Z,56.10
2023-01-20T19:14:15.250Z,60.00
2023-01-20T19:16:49.369Z,59.70
2023-01-20T19:19:19.201Z,56.20
2023-01-20T19:21:50.949Z,55.60
2023-01-20T19:24:21.375Z,63.80
2023-01-20T19:26:50.055Z,61.10
2023-01-20T19:29:19.095Z,64.00
2023-01-20T19:31:49.287Z,59.70
2023-01-20T19:34:18.132Z,59.30
2023-01-20T19:36:46.864Z,55.60
2023-01-20T19:39:15.759Z,61.70
2023-01-20T19:41:44.060Z,57.20
2023-01-20T19:44:13.748Z,61.80
2023-01-20T19:46:42.599Z,56.90
2023-01-20T19:49:12.845Z,60.50
2023-01-20T19:51:41.499Z,61.20
2023-01-20T19:54:12.773Z,61.30
2023-01-20T19:56:41.572Z,63.70
2023-01-20T19:59:12.485Z,57.50
2023-01-20T20:01:40.842Z,62.10
2023-01-20T20:04:12.885Z,57.80
2023-01-20T20:06:48.484Z,59.50
2023-01-20T20:09:20.871Z,57.10
2023-01-20T20:11:49.918Z,56.90
2023-01-20T20:14:20.877Z,62.10
2023-01-20T20:16:50.583Z,62.90
2023-01-20T20:19:20.446Z,61.00
2023-01-20T20:21:48.930Z,59.10
2023-01-20T20:24:18.664Z,63.10
2023-01-20T20:26:48.149Z,58.00
2023-01-20T20:29:18.778Z,59.30
2023-01-20T20:31:47.564Z,62.80
2023-01-20T20:34:19.006Z,57.90
2023-01-20T20:36:48.078Z,58.20
2023-01-20T20:39:18.736Z,60.70
2023-01-20T20:41:47.035Z,57.00
2023-01-20T20:44:15.603Z,58.70
2023-01-20T20:46:44.025Z,53.90
2023-01-20T20:49:17.411Z,56.80
2023-01-20T20:54:16.900Z,55.30
2023-01-20T20:56:45.356Z,54.80
2023-01-20T20:59:13.922Z,61.50
2023-01-20T21:01:42.592Z,57.40
2023-01-20T21:04:11.828Z,57.20
2023-01-20T21:06:40.306Z,59.00
2023-01-20T21:09:10.223Z,60.20
2023-01-20T21:11:41.553Z,59.90
2023-01-20T21:14:11.692Z,64.70
2023-01-20T21:16:40.183Z,66.20
2023-01-20T21:19:09.202Z,68.50
2023-01-20T21:21:37.751Z,68.50
2023-01-20T21:24:10.166Z,65.30
2023-01-20T21:26:38.555Z,59.80
2023-01-20T21:29:07.109Z,59.90
2023-01-20T21:31:35.512Z,59.00
2023-01-20T21:34:04.011Z,49.10
2023-01-20T21:36:34.067Z,51.10
2023-01-20T21:39:02.488Z,51.30
2023-01-20T21:41:30.885Z,43.60
2023-01-20T21:44:17.473Z,46.80
2023-01-20T21:46:45.953Z,41.60
2023-01-20T21:49:33.332Z,41.80
2023-01-20T21:52:20.309Z,40.80
2023-01-20T21:54:48.722Z,40.60
2023-01-20T21:57:17.080Z,37.00
2023-01-20T21:59:46.119Z,40.90
2023-01-20T22:02:15.254Z,37.00
2023-01-20T22:04:43.843Z,40.00
2023-01-20T22:07:12.781Z,42.30
2023-01-20T22:09:42.207Z,39.30
2023-01-20T22:12:11.199Z,37.60
2023-01-20T22:14:40.134Z,36.60
2023-01-20T22:17:10.203Z,37.90
2023-01-20T22:19:39.345Z,35.80
2023-01-20T22:22:07.971Z,37.60
2023-01-20T22:24:36.310Z,34.30
2023-01-20T22:27:04.712Z,36.20
2023-01-20T22:29:33.239Z,33.40
2023-01-20T22:32:03.434Z,32.60
2023-01-20T22:34:32.144Z,33.60
2023-01-20T22:37:00.866Z,30.20
2023-01-20T22:39:29.807Z,31.90
2023-01-20T22:41:58.983Z,29.60
2023-01-20T22:44:27.282Z,31.40
2023-01-20T22:46:55.560Z,35.70
2023-01-20T22:49:23.900Z,34.80
2023-01-20T22:51:54.608Z,28.60
2023-01-20T22:54:23.023Z,28.70
2023-01-20T22:56:51.391Z,29.40
2023-01-20T22:59:19.645Z,28.00
2023-01-20T23:01:47.968Z,27.50
2023-01-20T23:04:16.287Z,26.60
2023-01-20T23:06:44.640Z,26.50
2023-01-20T23:09:13.106Z,25.90
2023-01-20T23:11:41.937Z,24.20
2023-01-20T23:14:13.725Z,26.50
2023-01-20T23:16:43.272Z,26.40
2023-01-20T23:19:12.766Z,31.00
2023-01-20T23:21:41.152Z,35.80
2023-01-20T23:24:09.664Z,34.80
2023-01-20T23:26:37.911Z,31.80
2023-01-20T23:29:06.066Z,29.90
2023-01-20T23:31:35.526Z,26.00
2023-01-20T23:34:04.068Z,24.90
2023-01-20T23:36:33.014Z,24.00
2023-01-20T23:39:01.417Z,19.50
2023-01-20T23:41:30.158Z,22.00
2023-01-20T23:43:58.661Z,21.00
2023-01-20T23:46:27.372Z,25.20
2023-01-20T23:48:55.641Z,24.20
2023-01-20T23:51:24.022Z,22.70
2023-01-20T23:53:52.445Z,21.70
2023-01-20T23:56:23.706Z,22.40
2023-01-20T23:58:52.177Z,24.40
